CHIUDI BANNER

Seguici su twitter Seguici su facebook
LIVE Streaming HD
Get Adobe Flash player
Dati meteo stazione (refresh automatico ogni minuto)
Latina(LT) VENTO: VELOCITÀ   PIOGGIA: QTA GIORNO TEMPERATURA: ATTUALE
SPOT: Latina lido
(Hotel Tirreno) Posizione su Googlemap: Latitudine 41.41 Longitudine 12.84
RAFFICA MASSIMA: QTA MENSILE: MASSIMA:
VELOCITÀ MEDIA: QTA ANNUALE: MINIMA:
DIREZIONE: UMIDITÀ: WIND CHILL:
TIPO: DEW POINT:
BEAUFORT: PRESSIONE:
I nostri partner
Latina(LT) nelle ultime ore
Applica filtri in visualizzazione Intervallo delle letture nelle ultime

Ora Direzione Vento Velocita' Vento Media Vento Raffica Max. Temperatura Wind Chill Pioggia Pressione
14:42:10184 °(S)3.8 Kts2.1 Kts15.1 Kts20.6 °C19 °C0 mm1009.4 Hpa
14:37:10183 °(S)1.2 Kts3 Kts15.1 Kts20.3 °C18.2 °C0 mm1009.4 Hpa
14:32:03183 °(S)3 Kts4.7 Kts15.1 Kts19.9 °C16.7 °C0 mm1009.2 Hpa
14:27:04180 °(S)7.3 Kts4.7 Kts15.1 Kts19.7 °C16.6 °C0 mm1009.2 Hpa
14:21:45184 °(S)7.3 Kts3 Kts15.1 Kts19.7 °C17.5 °C0 mm1009.2 Hpa
14:17:00180 °(S)3 Kts2.1 Kts15.1 Kts19.7 °C18.1 °C0 mm1009.2 Hpa
14:11:41182 °(S)3 Kts3 Kts15.1 Kts20.2 °C18 °C0 mm1009.4 Hpa
14:06:58195 °(SSW)3.8 Kts3 Kts15.1 Kts20.2 °C18 °C0 mm1009.5 Hpa
14:02:15199 °(SSW)4.7 Kts2.1 Kts15.1 Kts20.1 °C18.4 °C0 mm1009.4 Hpa
13:56:45180 °(S)1.2 Kts1.2 Kts15.1 Kts19.8 °C18.6 °C0 mm1009.5 Hpa
13:51:44193 °(SSW)0 Kts1.2 Kts15.1 Kts19.7 °C18.4 °C0 mm1009.6 Hpa
13:47:00210 °(SSW)1.2 Kts1.2 Kts15.1 Kts19.8 °C18.6 °C0 mm1009.5 Hpa
13:41:46182 °(S)1.2 Kts2.1 Kts15.1 Kts20.1 °C18.4 °C0 mm1009.7 Hpa
13:37:05209 °(SSW)3 Kts2.1 Kts15.1 Kts20.1 °C18.4 °C0 mm1009.8 Hpa
13:32:15204 °(SSW)2.1 Kts1.2 Kts15.1 Kts20.2 °C19 °C0 mm1009.8 Hpa
13:26:54207 °(SSW)0 Kts1.2 Kts15.1 Kts20.1 °C18.9 °C0 mm1009.7 Hpa
13:22:09213 °(SSW)1.2 Kts1.2 Kts15.1 Kts19.9 °C18.7 °C0 mm1009.9 Hpa
13:16:55205 °(SSW)0.3 Kts2.1 Kts15.1 Kts19.7 °C18 °C0 mm1009.9 Hpa
13:12:11192 °(SSW)1.2 Kts2.1 Kts15.1 Kts19.6 °C17.9 °C0 mm1010 Hpa
13:06:56184 °(S)3 Kts2.1 Kts15.1 Kts19.4 °C17.6 °C0 mm1010 Hpa
13:01:47180 °(S)2.1 Kts2.1 Kts15.1 Kts19.4 °C17.6 °C0 mm1009.9 Hpa
12:57:04180 °(S)1.2 Kts3 Kts15.1 Kts19.2 °C16.9 °C0 mm1010 Hpa
12:51:50207 °(SSW)4.7 Kts3 Kts15.1 Kts19.1 °C16.7 °C0 mm1010.2 Hpa
12:47:06210 °(SSW)3.8 Kts1.2 Kts15.1 Kts18.9 °C17.6 °C0 mm1010 Hpa